Terminal Aerodrome Forecast
Issued by NWS

Home | Current Version | Previous Version | Text Only | Print | Product List | Glossary On
Versions: 1 2 3 4 5 6 7 8 9 10 11 12 13 14 15 16 17
000
FTUS46 KMFR 291740
TAFOTH
TAF
KOTH 291740Z 2918/3018 35011KT P6SM BKN020 BKN030
     FM292100 34016G24KT P6SM BKN040
     FM300300 35010KT P6SM OVC015
     FM301000 02005KT P6SM SCT015
     FM301600 36010KT P6SM SKC=

USA.gov is the U.S. government's official web portal to all federal, state and local government web resources and services.